Time;durP1;ratioP1;P1;durP2;ratioP2;P2;SDS_P1;SDS_P2;PMS_P1;PMS_P2;Temp;Humidity;BMP_temperature;BMP_pressure;BME280_temperature;BME280_humidity;BME280_pressure;Samples;Min_cycle;Max_cycle;Signal;HPM_P1;HPM_P2
2022/03/13 00:00:44;;;;;;;;;;;;;;;1.10;57.49;102239.88;1701314;84;27306;-58
2022/03/13 00:03:13;;;;;;;;;;;;;;;1.11;57.01;102227.48;1701498;83;26954;-59
2022/03/13 00:05:41;;;;;;;;;;;;;;;1.14;58.10;102226.09;1701194;83;25745;-59
2022/03/13 00:08:23;;;;;;;;;;;;;;;1.18;57.84;102215.81;1701427;83;25745;-59
2022/03/13 00:10:56;;;;;;;;;;;;;;;1.23;58.13;102213.92;1701401;84;25768;-59
2022/03/13 00:13:20;;;;;;;;;;;;;;;1.27;56.91;102208.09;1700954;84;25785;-59
2022/03/13 00:15:47;;;;;;;;;;;;;;;1.28;56.01;102201.41;1701441;83;27496;-59
2022/03/13 00:18:14;;;;;;;;;;;;;;;1.28;56.89;102200.55;1701651;83;25829;-59
2022/03/13 00:20:41;;;;;;;;;;;;;;;1.22;57.59;102194.95;1701531;84;25820;-59
2022/03/13 00:23:07;;;;;;;;;;;;;;;1.18;57.40;102187.54;1699647;83;25830;-59
2022/03/13 00:25:34;;;;;;;;;;;;;;;1.15;57.54;102190.73;1701196;84;25777;-59
2022/03/13 00:28:00;;;;;;;;;;;;;;;1.15;56.86;102186.28;1701544;84;28216;-59
2022/03/13 00:30:27;;;;;;;;;;;;;;;1.15;57.09;102186.75;1701025;84;25720;-59
2022/03/13 00:32:53;;;;;;;;;;;;;;;1.13;58.39;102183.27;1701448;83;25465;-59
2022/03/13 00:35:20;;;;;;;;;;;;;;;1.06;58.64;102176.81;1701146;84;25797;-59
2022/03/13 00:37:47;;;;;;;;;;;;;;;1.04;58.32;102175.08;1701220;84;25447;-59
2022/03/13 00:40:14;;;;;;;;;;;;;;;0.99;59.26;102168.58;1701183;84;27480;-59
2022/03/13 00:42:40;;;;;;;;;;;;;;;0.96;59.70;102167.79;1701260;84;25791;-59
2022/03/13 00:45:09;;;;;;;;;;;;;;;0.93;59.17;102166.09;1701306;84;25729;-58
2022/03/13 00:47:36;;;;;;;;;;;;;;;0.91;62.38;102170.55;1701315;84;25884;-58
2022/03/13 00:50:03;;;;;;;;;;;;;;;0.80;61.78;102164.69;1701234;84;25791;-59
2022/03/13 00:52:29;;;;;;;;;;;;;;;0.75;63.16;102163.00;1701547;84;28167;-59
2022/03/13 00:54:56;;;;;;;;;;;;;;;0.67;62.12;102162.33;1701154;84;25596;-58
2022/03/13 00:57:23;;;;;;;;;;;;;;;0.61;63.56;102157.20;1696890;84;25724;-59
2022/03/13 00:59:50;;;;;;;;;;;;;;;0.58;62.41;102153.28;1682171;85;25806;-58
2022/03/13 01:02:16;;;;;;;;;;;;;;;0.56;63.59;102156.42;1683178;85;25795;-58
2022/03/13 01:04:48;;;;;;;;;;;;;;;0.54;63.38;102152.97;1682736;84;27282;-58
2022/03/13 01:07:14;;;;;;;;;;;;;;;0.53;62.64;102153.40;1686135;85;25757;-58
2022/03/13 01:09:42;;;;;;;;;;;;;;;0.56;61.85;102149.36;1686148;84;25792;-58
2022/03/13 01:12:10;;;;;;;;;;;;;;;0.59;62.88;102147.94;1695596;84;25778;-59
2022/03/13 01:14:36;;;;;;;;;;;;;;;0.57;64.56;102146.25;1665879;85;25922;-58
2022/03/13 01:17:06;;;;;;;;;;;;;;;0.54;62.44;102146.34;1700579;84;27495;-59
2022/03/13 01:19:32;;;;;;;;;;;;;;;0.56;63.37;102148.47;1692868;84;25529;-58
2022/03/13 01:22:00;;;;;;;;;;;;;;;0.52;63.56;102147.69;1683159;84;25742;-59
2022/03/13 01:24:29;;;;;;;;;;;;;;;0.51;64.21;102150.38;1691450;84;26466;-59
2022/03/13 01:27:01;;;;;;;;;;;;;;;0.45;63.17;102150.92;1680647;85;25779;-59
2022/03/13 01:29:30;;;;;;;;;;;;;;;0.44;64.82;102149.21;1680460;84;28540;-58
2022/03/13 01:31:57;;;;;;;;;;;;;;;0.42;63.69;102142.19;1680525;85;25750;-59
2022/03/13 01:34:44;;;;;;;;;;;;;;;0.45;63.26;102133.71;1680788;85;25440;-58
2022/03/13 01:37:17;;;;;;;;;;;;;;;0.46;64.14;102131.48;1680699;85;25868;-57
2022/03/13 01:39:44;;;;;;;;;;;;;;;0.43;64.74;102140.84;1680624;84;25820;-58
2022/03/13 01:42:10;;;;;;;;;;;;;;;0.37;64.50;102135.67;1680887;84;27455;-58
2022/03/13 01:44:37;;;;;;;;;;;;;;;0.35;64.62;102136.62;1680680;85;25943;-58
2022/03/13 01:47:06;;;;;;;;;;;;;;;0.29;64.31;102129.27;1680772;85;25733;-58
2022/03/13 01:49:33;;;;;;;;;;;;;;;0.26;65.11;102134.62;1680929;85;25745;-58
2022/03/13 01:52:01;;;;;;;;;;;;;;;0.28;64.63;102134.14;1680548;85;25721;-58
2022/03/13 01:54:32;;;;;;;;;;;;;;;0.26;64.83;102138.59;1680820;84;27441;-59
2022/03/13 01:57:00;;;;;;;;;;;;;;;0.27;66.08;102140.80;1684074;84;25777;-58
2022/03/13 01:59:33;;;;;;;;;;;;;;;0.21;66.55;102141.81;1701088;83;25706;-57
2022/03/13 02:01:57;;;;;;;;;;;;;;;0.22;65.69;102135.61;1700296;84;25784;-58
2022/03/13 02:04:28;;;;;;;;;;;;;;;0.25;65.46;102132.02;1701338;83;25939;-58
2022/03/13 02:06:58;;;;;;;;;;;;;;;0.26;65.71;102141.23;1701060;84;27516;-58
2022/03/13 02:09:26;;;;;;;;;;;;;;;0.23;66.25;102137.80;1701262;83;26324;-57
2022/03/13 02:11:54;;;;;;;;;;;;;;;0.19;66.42;102132.14;1701117;84;25792;-57
2022/03/13 02:14:22;;;;;;;;;;;;;;;0.15;66.09;102133.98;1701330;84;25970;-57
2022/03/13 02:16:51;;;;;;;;;;;;;;;0.17;65.71;102137.95;1700777;84;25764;-58
2022/03/13 02:19:18;;;;;;;;;;;;;;;0.14;65.92;102134.45;1700627;84;27558;-57
2022/03/13 02:21:53;;;;;;;;;;;;;;;0.15;65.74;102137.52;1700897;84;25881;-58
2022/03/13 02:24:24;;;;;;;;;;;;;;;0.15;65.33;102137.52;1705365;83;25649;-58
2022/03/13 02:26:57;;;;;;;;;;;;;;;0.16;65.43;102125.14;1690454;84;25817;-57
2022/03/13 02:29:24;;;;;;;;;;;;;;;0.15;65.04;102119.00;1690263;84;25654;-57
2022/03/13 02:31:51;;;;;;;;;;;;;;;0.19;65.63;102125.09;1690608;85;28572;-57
2022/03/13 02:34:20;;;;;;;;;;;;;;;0.21;64.94;102125.05;1690377;85;25612;-57
2022/03/13 02:36:50;;;;;;;;;;;;;;;0.25;64.89;102113.02;1690584;85;26643;-57
2022/03/13 02:39:18;;;;;;;;;;;;;;;0.29;65.19;102119.11;1690427;85;25817;-57
2022/03/13 02:41:46;;;;;;;;;;;;;;;0.29;64.83;102121.33;1690582;85;25789;-57
2022/03/13 02:44:17;;;;;;;;;;;;;;;0.32;64.71;102117.72;1690558;85;27470;-57
2022/03/13 02:46:50;;;;;;;;;;;;;;;0.35;65.32;102120.74;1690463;85;25947;-57
2022/03/13 02:49:19;;;;;;;;;;;;;;;0.33;64.71;102121.23;1690524;85;25440;-57
2022/03/13 02:51:47;;;;;;;;;;;;;;;0.33;64.90;102115.94;1690911;85;25851;-57
2022/03/13 02:54:14;;;;;;;;;;;;;;;0.36;64.29;102115.88;1690565;85;25709;-57
2022/03/13 02:56:42;;;;;;;;;;;;;;;0.40;64.57;102118.88;1691741;84;27455;-57
2022/03/13 02:59:10;;;;;;;;;;;;;;;0.41;63.76;102112.64;1710843;84;26002;-57
2022/03/13 03:01:38;;;;;;;;;;;;;;;0.44;63.78;102119.20;1710930;83;25901;-57
2022/03/13 03:04:05;;;;;;;;;;;;;;;0.48;63.38;102119.98;1710141;84;26963;-57
2022/03/13 03:06:33;;;;;;;;;;;;;;;0.51;63.31;102118.14;1710870;84;25462;-58
2022/03/13 03:09:02;;;;;;;;;;;;;;;0.54;62.95;102117.21;1710809;84;27479;-57
2022/03/13 03:11:31;;;;;;;;;;;;;;;0.57;62.84;102121.09;1711029;84;25819;-57
2022/03/13 03:13:57;;;;;;;;;;;;;;;0.59;63.14;102124.11;1711010;83;25914;-58
2022/03/13 03:16:24;;;;;;;;;;;;;;;0.56;62.70;102119.34;1710776;84;25913;-58
2022/03/13 03:18:50;;;;;;;;;;;;;;;0.53;63.38;102115.00;1710984;84;25763;-57
2022/03/13 03:21:17;;;;;;;;;;;;;;;0.46;63.45;102114.75;1711205;84;27338;-57
2022/03/13 03:23:45;;;;;;;;;;;;;;;0.39;63.28;102111.84;1710807;84;25727;-57
2022/03/13 03:26:11;;;;;;;;;;;;;;;0.36;63.18;102115.88;1691082;84;25943;-57
2022/03/13 03:28:37;;;;;;;;;;;;;;;0.34;62.85;102117.23;1690205;85;25801;-57
2022/03/13 03:31:04;;;;;;;;;;;;;;;0.39;63.11;102110.52;1690401;84;25816;-57
2022/03/13 03:33:31;;;;;;;;;;;;;;;0.42;62.69;102104.69;1690385;85;27499;-58
2022/03/13 03:35:57;;;;;;;;;;;;;;;0.49;62.71;102111.14;1690148;85;25848;-57
2022/03/13 03:38:24;;;;;;;;;;;;;;;0.50;62.51;102106.27;1690408;85;25799;-58
2022/03/13 03:40:51;;;;;;;;;;;;;;;0.56;63.05;102101.70;1690438;85;25719;-57
2022/03/13 03:43:18;;;;;;;;;;;;;;;0.55;62.53;102114.52;1690692;83;25765;-58
2022/03/13 03:45:45;;;;;;;;;;;;;;;0.51;62.23;102114.16;1690650;85;27501;-57
2022/03/13 03:48:11;;;;;;;;;;;;;;;0.53;62.33;102115.00;1690863;84;25807;-57
2022/03/13 03:50:38;;;;;;;;;;;;;;;0.52;61.74;102125.17;1690458;85;25713;-58
2022/03/13 03:53:05;;;;;;;;;;;;;;;0.50;61.57;102121.69;1690878;85;25762;-58
2022/03/13 03:55:31;;;;;;;;;;;;;;;0.44;60.12;102125.38;1690602;83;25664;-57
2022/03/13 03:57:58;;;;;;;;;;;;;;;0.38;60.64;102131.27;1701141;84;27482;-57
2022/03/13 04:00:26;;;;;;;;;;;;;;;0.35;60.10;102126.04;1705101;84;25743;-57
2022/03/13 04:02:53;;;;;;;;;;;;;;;0.31;59.62;102130.08;1705284;84;25609;-57
2022/03/13 04:05:20;;;;;;;;;;;;;;;0.29;59.79;102129.27;1705078;83;25802;-57
2022/03/13 04:07:47;;;;;;;;;;;;;;;0.34;59.81;102126.51;1704824;83;25767;-57
2022/03/13 04:10:13;;;;;;;;;;;;;;;0.34;58.82;102127.83;1704846;84;27491;-58
2022/03/13 04:12:40;;;;;;;;;;;;;;;0.39;58.47;102129.90;1704948;84;25787;-57
2022/03/13 04:15:08;;;;;;;;;;;;;;;0.45;58.23;102131.06;1704738;84;25803;-57
2022/03/13 04:17:35;;;;;;;;;;;;;;;0.51;58.40;102132.70;1705022;84;26473;-57
2022/03/13 04:20:03;;;;;;;;;;;;;;;0.56;58.13;102138.77;1705016;84;25546;-57
2022/03/13 04:22:30;;;;;;;;;;;;;;;0.56;57.85;102129.94;1705040;84;27551;-57
2022/03/13 04:24:57;;;;;;;;;;;;;;;0.60;57.11;102127.64;1689482;84;25846;-58
2022/03/13 04:27:25;;;;;;;;;;;;;;;0.64;56.36;102123.13;1680755;85;26416;-57
2022/03/13 04:29:52;;;;;;;;;;;;;;;0.65;56.15;102127.06;1680735;85;26601;-58
2022/03/13 04:32:22;;;;;;;;;;;;;;;0.67;56.39;102134.98;1680885;85;25460;-58
2022/03/13 04:34:47;;;;;;;;;;;;;;;0.68;56.37;102138.02;1681069;84;28099;-57
2022/03/13 04:37:16;;;;;;;;;;;;;;;0.70;56.42;102138.86;1680668;85;25634;-58
2022/03/13 04:39:42;;;;;;;;;;;;;;;0.75;56.53;102135.66;1680783;85;25760;-58
2022/03/13 04:42:10;;;;;;;;;;;;;;;0.81;56.56;102142.12;1680789;85;26418;-58
2022/03/13 04:44:37;;;;;;;;;;;;;;;0.76;54.95;102136.08;1680791;85;25815;-57
2022/03/13 04:47:05;;;;;;;;;;;;;;;0.65;54.09;102145.59;1680748;85;27488;-58
2022/03/13 04:49:32;;;;;;;;;;;;;;;0.59;54.55;102139.14;1681007;84;25750;-57
2022/03/13 04:51:58;;;;;;;;;;;;;;;0.59;54.80;102148.41;1680768;85;25728;-58
2022/03/13 04:54:25;;;;;;;;;;;;;;;0.55;54.85;102151.59;1680847;85;26611;-57
2022/03/13 04:56:52;;;;;;;;;;;;;;;0.57;55.13;102151.11;1683265;84;25742;-57
2022/03/13 04:59:18;;;;;;;;;;;;;;;0.61;55.16;102152.75;1701170;84;27524;-57
2022/03/13 05:01:45;;;;;;;;;;;;;;;0.60;55.24;102160.28;1700913;84;25677;-57
2022/03/13 05:04:12;;;;;;;;;;;;;;;0.61;55.27;102158.52;1701319;84;25602;-57
2022/03/13 05:06:43;;;;;;;;;;;;;;;0.64;55.04;102160.22;1701205;83;25461;-57
2022/03/13 05:09:07;;;;;;;;;;;;;;;0.63;55.01;102159.33;1701214;83;25649;-57
2022/03/13 05:11:34;;;;;;;;;;;;;;;0.62;55.03;102159.80;1701206;84;28127;-58
2022/03/13 05:14:00;;;;;;;;;;;;;;;0.61;54.84;102159.37;1701407;84;25835;-58
2022/03/13 05:16:27;;;;;;;;;;;;;;;0.64;54.95;102165.05;1701193;84;25769;-58
2022/03/13 05:18:54;;;;;;;;;;;;;;;0.66;54.74;102172.50;1700997;83;25771;-60
2022/03/13 05:21:20;;;;;;;;;;;;;;;0.60;54.89;102162.92;1701060;84;26379;-58
2022/03/13 05:23:47;;;;;;;;;;;;;;;0.58;54.87;102171.83;1697899;83;27601;-58
2022/03/13 05:26:13;;;;;;;;;;;;;;;0.56;55.08;102175.84;1648885;85;25763;-58
2022/03/13 05:28:40;;;;;;;;;;;;;;;0.58;55.15;102174.00;1673108;85;25639;-58
2022/03/13 05:31:07;;;;;;;;;;;;;;;0.58;55.69;102175.33;1683009;85;25813;-58
2022/03/13 05:33:34;;;;;;;;;;;;;;;0.51;56.13;102172.41;1682931;85;25770;-58
2022/03/13 05:36:01;;;;;;;;;;;;;;;0.52;56.19;102175.48;1682952;85;27489;-58
2022/03/13 05:38:28;;;;;;;;;;;;;;;0.54;55.96;102170.17;1682647;85;25940;-58
2022/03/13 05:40:55;;;;;;;;;;;;;;;0.54;56.48;102182.09;1682921;85;25706;-58
2022/03/13 05:43:22;;;;;;;;;;;;;;;0.52;56.83;102171.52;1682821;85;25817;-58
2022/03/13 05:45:51;;;;;;;;;;;;;;;0.52;57.07;102178.60;1682764;85;25725;-58
2022/03/13 05:48:18;;;;;;;;;;;;;;;0.56;57.71;102185.55;1683124;85;28161;-59
2022/03/13 05:50:46;;;;;;;;;;;;;;;0.51;58.16;102185.66;1682883;85;25517;-59
2022/03/13 05:53:12;;;;;;;;;;;;;;;0.52;57.69;102181.25;1683293;85;25776;-59
2022/03/13 05:55:39;;;;;;;;;;;;;;;0.57;58.35;102185.53;1682955;85;26164;-59
2022/03/13 05:58:06;;;;;;;;;;;;;;;0.61;57.70;102188.51;1683590;83;25804;-58
2022/03/13 06:00:33;;;;;;;;;;;;;;;0.66;58.59;102190.19;1688641;85;27494;-59
2022/03/13 06:03:01;;;;;;;;;;;;;;;0.57;60.01;102189.50;1688490;85;25889;-58
2022/03/13 06:05:33;;;;;;;;;;;;;;;0.56;60.02;102194.38;1688642;85;25744;-58
2022/03/13 06:07:56;;;;;;;;;;;;;;;0.55;60.03;102191.31;1688526;83;25665;-58
2022/03/13 06:10:24;;;;;;;;;;;;;;;0.54;60.56;102202.81;1688645;83;25816;-58
2022/03/13 06:12:50;;;;;;;;;;;;;;;0.56;60.18;102204.97;1688512;85;27487;-58
2022/03/13 06:15:19;;;;;;;;;;;;;;;0.61;59.75;102203.08;1688741;85;25695;-58
2022/03/13 06:17:47;;;;;;;;;;;;;;;0.64;60.21;102201.27;1688519;85;25775;-58
2022/03/13 06:20:16;;;;;;;;;;;;;;;0.66;60.54;102207.41;1688643;83;25806;-58
2022/03/13 06:22:44;;;;;;;;;;;;;;;0.67;60.17;102204.70;1688679;83;25502;-58
2022/03/13 06:25:13;;;;;;;;;;;;;;;0.67;60.64;102206.50;1689178;83;27469;-58
2022/03/13 06:27:41;;;;;;;;;;;;;;;0.74;59.98;102206.77;1688376;85;25800;-58
2022/03/13 06:30:14;;;;;;;;;;;;;;;0.84;60.14;102215.34;1688549;85;25797;-58
2022/03/13 06:32:43;;;;;;;;;;;;;;;0.89;60.23;102210.35;1688487;83;25857;-59
2022/03/13 06:35:11;;;;;;;;;;;;;;;0.91;60.17;102209.87;1688724;83;25699;-58
2022/03/13 06:37:38;;;;;;;;;;;;;;;0.92;59.87;102214.27;1688541;83;28179;-59
2022/03/13 06:40:08;;;;;;;;;;;;;;;1.00;59.23;102213.20;1688583;85;25738;-58
2022/03/13 06:42:35;;;;;;;;;;;;;;;1.11;58.64;102217.77;1688489;85;25720;-58
2022/03/13 06:45:02;;;;;;;;;;;;;;;1.22;58.42;102202.91;1688146;85;25880;-59
2022/03/13 06:47:29;;;;;;;;;;;;;;;1.32;57.50;102213.69;1684407;85;25787;-59
2022/03/13 06:49:55;;;;;;;;;;;;;;;1.39;56.99;102207.77;1685957;85;28156;-58
2022/03/13 06:52:22;;;;;;;;;;;;;;;1.46;56.41;102215.97;1682690;85;25662;-58
2022/03/13 06:54:49;;;;;;;;;;;;;;;1.55;56.04;102206.44;1677076;84;25747;-58
2022/03/13 06:57:18;;;;;;;;;;;;;;;1.73;56.15;102204.17;1687044;85;25792;-57
2022/03/13 06:59:46;;;;;;;;;;;;;;;1.86;55.51;102202.89;1683594;83;25733;-58
2022/03/13 07:02:13;;;;;;;;;;;;;;;2.00;55.22;102210.92;1683930;85;27572;-58
2022/03/13 07:04:40;;;;;;;;;;;;;;;2.18;54.99;102217.45;1688854;84;25709;-58
2022/03/13 07:07:07;;;;;;;;;;;;;;;2.33;54.15;102213.47;1686383;85;25766;-58
2022/03/13 07:09:34;;;;;;;;;;;;;;;2.42;53.97;102212.33;1684349;85;25801;-58
2022/03/13 07:12:01;;;;;;;;;;;;;;;2.55;53.75;102221.64;1688812;85;25472;-58
2022/03/13 07:14:31;;;;;;;;;;;;;;;2.66;52.11;102221.28;1688667;85;28174;-59
2022/03/13 07:16:57;;;;;;;;;;;;;;;2.75;51.91;102223.65;1688620;84;25918;-58
2022/03/13 07:19:24;;;;;;;;;;;;;;;2.82;51.62;102223.85;1684741;85;25730;-58
2022/03/13 07:21:50;;;;;;;;;;;;;;;2.94;51.30;102237.23;1689957;85;25753;-58
2022/03/13 07:24:17;;;;;;;;;;;;;;;3.01;50.60;102231.22;1691982;83;26043;-57
2022/03/13 07:26:45;;;;;;;;;;;;;;;3.08;50.04;102230.13;1708301;84;27603;-58
2022/03/13 07:29:11;;;;;;;;;;;;;;;3.18;49.40;102235.12;1708187;83;25748;-58
2022/03/13 07:31:38;;;;;;;;;;;;;;;3.19;49.85;102222.21;1704488;84;25747;-59
2022/03/13 07:34:04;;;;;;;;;;;;;;;3.19;48.68;102230.19;1691334;84;26464;-58
2022/03/13 07:36:31;;;;;;;;;;;;;;;3.27;48.73;102233.48;1680542;84;25756;-58
2022/03/13 07:38:58;;;;;;;;;;;;;;;3.38;47.47;102238.42;1687754;84;27483;-58
2022/03/13 07:41:24;;;;;;;;;;;;;;;3.42;47.02;102242.26;1675947;84;25798;-59
2022/03/13 07:43:51;;;;;;;;;;;;;;;3.49;46.51;102240.70;1668819;86;25541;-59
2022/03/13 07:46:18;;;;;;;;;;;;;;;3.56;44.92;102243.10;1669082;84;25784;-59
2022/03/13 07:48:45;;;;;;;;;;;;;;;3.59;45.23;102242.97;1683227;84;25809;-58
2022/03/13 07:51:13;;;;;;;;;;;;;;;3.67;45.34;102248.03;1684549;84;27493;-59
2022/03/13 07:53:41;;;;;;;;;;;;;;;3.77;44.30;102245.89;1686921;84;25512;-58
2022/03/13 07:56:08;;;;;;;;;;;;;;;3.83;43.77;102252.34;1686558;84;25698;-58
2022/03/13 07:58:34;;;;;;;;;;;;;;;3.86;44.84;102250.88;1689369;83;26412;-59
2022/03/13 08:01:01;;;;;;;;;;;;;;;3.99;43.36;102247.78;1675334;84;25791;-58
2022/03/13 08:03:38;;;;;;;;;;;;;;;4.10;43.88;102251.36;1669213;86;27469;-59
2022/03/13 08:05:56;;;;;;;;;;;;;;;4.23;43.58;102249.98;1667650;85;25744;-59
2022/03/13 08:08:23;;;;;;;;;;;;;;;4.36;43.31;102263.70;1668922;85;25779;-59
2022/03/13 08:10:49;;;;;;;;;;;;;;;4.45;42.59;102262.02;1669042;85;25801;-58
2022/03/13 08:13:15;;;;;;;;;;;;;;;4.49;42.83;102262.77;1685732;84;25654;-58
2022/03/13 08:15:42;;;;;;;;;;;;;;;4.52;42.70;102264.84;1684522;84;27569;-59
2022/03/13 08:18:12;;;;;;;;;;;;;;;4.58;41.88;102261.07;1663063;85;25776;-59
2022/03/13 08:20:39;;;;;;;;;;;;;;;4.61;41.68;102262.74;1690693;84;25780;-58
2022/03/13 08:23:06;;;;;;;;;;;;;;;4.72;42.46;102260.97;1694426;83;25853;-58
2022/03/13 08:25:33;;;;;;;;;;;;;;;4.91;41.68;102263.78;1677895;84;25776;-59
2022/03/13 08:27:59;;;;;;;;;;;;;;;5.09;40.35;102260.36;1675846;84;27497;-58
2022/03/13 08:30:26;;;;;;;;;;;;;;;5.17;41.28;102264.02;1654423;84;25482;-58
2022/03/13 08:32:53;;;;;;;;;;;;;;;5.28;40.06;102260.92;1667488;85;25638;-58
2022/03/13 08:35:20;;;;;;;;;;;;;;;5.31;39.53;102265.66;1660009;85;25815;-58
2022/03/13 08:37:48;;;;;;;;;;;;;;;5.42;40.65;102270.53;1659809;83;25761;-58
2022/03/13 08:40:14;;;;;;;;;;;;;;;5.54;40.54;102257.11;1668629;85;27523;-59
2022/03/13 08:42:41;;;;;;;;;;;;;;;5.72;39.55;102259.45;1670336;85;27311;-58
2022/03/13 08:45:11;;;;;;;;;;;;;;;5.89;39.30;102256.50;1669168;85;25717;-59
2022/03/13 08:47:39;;;;;;;;;;;;;;;6.03;38.72;102254.09;1674861;84;26642;-59
2022/03/13 08:50:07;;;;;;;;;;;;;;;6.16;38.29;102254.39;1698767;83;25732;-60
2022/03/13 08:52:35;;;;;;;;;;;;;;;6.32;37.19;102257.22;1709867;83;27472;-59
2022/03/13 08:55:08;;;;;;;;;;;;;;;6.47;37.56;102253.41;1710338;83;25704;-59
2022/03/13 08:57:35;;;;;;;;;;;;;;;6.66;37.44;102249.41;1705512;83;26198;-58
2022/03/13 09:00:04;;;;;;;;;;;;;;;6.87;36.36;102243.47;1700191;83;25777;-59
2022/03/13 09:02:30;;;;;;;;;;;;;;;7.15;34.65;102252.31;1708906;82;25874;-59
2022/03/13 09:04:57;;;;;;;;;;;;;;;7.24;33.93;102256.80;1708117;83;27477;-58
2022/03/13 09:07:24;;;;;;;;;;;;;;;7.00;33.40;102259.30;1708946;83;25768;-59
2022/03/13 09:09:51;;;;;;;;;;;;;;;6.94;32.87;102260.09;1706330;84;25733;-59
2022/03/13 09:12:17;;;;;;;;;;;;;;;7.12;34.38;102265.88;1705664;83;25804;-59
2022/03/13 09:14:44;;;;;;;;;;;;;;;7.30;34.24;102261.88;1708792;83;25734;-58
2022/03/13 09:17:10;;;;;;;;;;;;;;;7.45;33.52;102262.41;1712065;82;27485;-58
2022/03/13 09:19:37;;;;;;;;;;;;;;;7.58;33.97;102266.66;1709876;83;25862;-58
2022/03/13 09:22:04;;;;;;;;;;;;;;;7.62;33.35;102267.36;1709853;83;25866;-59
2022/03/13 09:24:30;;;;;;;;;;;;;;;7.77;31.93;102272.39;1711162;83;25807;-58
2022/03/13 09:26:57;;;;;;;;;;;;;;;8.01;32.38;102269.34;1712430;83;25982;-58
2022/03/13 09:29:24;;;;;;;;;;;;;;;8.08;31.32;102262.70;1709992;83;27489;-58
2022/03/13 09:31:50;;;;;;;;;;;;;;;8.01;29.90;102258.16;1709852;83;25744;-58
2022/03/13 09:34:17;;;;;;;;;;;;;;;7.81;29.93;102271.27;1704362;83;25704;-58
2022/03/13 09:36:43;;;;;;;;;;;;;;;7.58;29.97;102265.78;1694246;83;25838;-58
2022/03/13 09:39:10;;;;;;;;;;;;;;;7.41;31.13;102272.88;1693330;83;25728;-58
2022/03/13 09:41:39;;;;;;;;;;;;;;;7.35;31.31;102277.22;1690852;83;28165;-58
2022/03/13 09:44:07;;;;;;;;;;;;;;;7.32;31.63;102274.23;1690370;84;25804;-58
2022/03/13 09:46:38;;;;;;;;;;;;;;;7.38;31.10;102274.39;1690501;85;25817;-59
2022/03/13 09:49:06;;;;;;;;;;;;;;;7.58;30.92;102269.80;1693392;83;25955;-58
2022/03/13 09:51:33;;;;;;;;;;;;;;;7.80;29.20;102268.19;1698610;83;25977;-59
2022/03/13 09:54:02;;;;;;;;;;;;;;;7.66;29.54;102267.61;1698008;83;27512;-58
2022/03/13 09:56:29;;;;;;;;;;;;;;;7.59;30.62;102262.16;1695666;83;25801;-59
2022/03/13 09:58:55;;;;;;;;;;;;;;;7.56;31.14;102275.23;1700380;83;25858;-58
2022/03/13 10:01:24;;;;;;;;;;;;;;;7.61;30.41;102273.20;1699903;83;25530;-58
2022/03/13 10:03:51;;;;;;;;;;;;;;;7.50;30.86;102277.76;1696069;83;25777;-59
2022/03/13 10:06:17;;;;;;;;;;;;;;;7.48;30.27;102276.11;1699038;83;28143;-58
2022/03/13 10:08:45;;;;;;;;;;;;;;;7.35;31.43;102271.86;1706326;83;25758;-59
2022/03/13 10:11:11;;;;;;;;;;;;;;;7.42;30.60;102276.44;1715821;83;25683;-59
2022/03/13 10:13:40;;;;;;;;;;;;;;;7.43;31.82;102282.19;1716003;83;25774;-59
2022/03/13 10:16:09;;;;;;;;;;;;;;;7.50;30.96;102280.92;1680853;84;26526;-59
2022/03/13 10:18:36;;;;;;;;;;;;;;;7.58;30.92;102276.48;1674508;84;27597;-59
2022/03/13 10:21:09;;;;;;;;;;;;;;;7.67;30.90;102270.20;1700211;83;25817;-59
2022/03/13 10:23:36;;;;;;;;;;;;;;;8.11;29.87;102279.97;1671890;85;25735;-59
2022/03/13 10:26:07;;;;;;;;;;;;;;;8.14;29.63;102277.98;1676043;84;26536;-59
2022/03/13 10:28:36;;;;;;;;;;;;;;;8.27;29.61;102280.00;1668964;85;25746;-58
2022/03/13 10:31:06;;;;;;;;;;;;;;;8.33;29.35;102276.12;1671867;85;27499;-60
2022/03/13 10:33:45;;;;;;;;;;;;;;;8.40;28.69;102270.81;1671453;86;25697;-59
2022/03/13 10:36:15;;;;;;;;;;;;;;;8.53;29.04;102271.02;1681632;85;25467;-59
2022/03/13 10:38:43;;;;;;;;;;;;;;;8.66;28.99;102280.58;1673129;85;26532;-59
2022/03/13 10:41:10;;;;;;;;;;;;;;;8.87;28.60;102280.72;1682629;85;25700;-59
2022/03/13 10:43:40;;;;;;;;;;;;;;;9.05;28.01;102269.38;1682297;84;27870;-59
2022/03/13 10:46:07;;;;;;;;;;;;;;;9.99;28.59;102272.75;1680826;85;25725;-59
2022/03/13 10:48:37;;;;;;;;;;;;;;;11.10;28.03;102262.08;1678559;85;25728;-59
2022/03/13 10:51:07;;;;;;;;;;;;;;;12.11;27.33;102261.47;1683159;85;25651;-58
2022/03/13 10:53:37;;;;;;;;;;;;;;;12.19;24.34;102256.38;1679589;85;25984;-58
2022/03/13 10:56:12;;;;;;;;;;;;;;;11.64;25.32;102265.64;1681675;84;27832;-59
2022/03/13 10:58:48;;;;;;;;;;;;;;;11.28;25.42;102274.31;1678744;84;25724;-59
2022/03/13 11:01:17;;;;;;;;;;;;;;;10.78;25.30;102267.80;1679600;85;25768;-58
2022/03/13 11:03:59;;;;;;;;;;;;;;;10.33;26.10;102267.94;1683844;85;25776;-59
2022/03/13 11:06:27;;;;;;;;;;;;;;;10.00;27.36;102269.95;1681398;85;25780;-59
2022/03/13 11:08:55;;;;;;;;;;;;;;;9.85;27.35;102273.61;1679239;85;27498;-59
2022/03/13 11:11:24;;;;;;;;;;;;;;;9.76;26.80;102266.98;1681999;85;25778;-58
2022/03/13 11:13:54;;;;;;;;;;;;;;;9.53;27.19;102273.76;1680225;85;25891;-58
2022/03/13 11:16:28;;;;;;;;;;;;;;;9.31;27.54;102274.18;1676434;85;25717;-58
2022/03/13 11:18:58;;;;;;;;;;;;;;;9.01;27.92;102278.55;1677840;85;25840;-59
2022/03/13 11:21:25;;;;;;;;;;;;;;;8.86;28.05;102285.69;1677579;85;27570;-58
2022/03/13 11:23:53;;;;;;;;;;;;;;;8.68;29.00;102279.53;1678912;84;25772;-58
2022/03/13 11:26:20;;;;;;;;;;;;;;;8.52;28.36;102281.36;1693673;84;25284;-58
2022/03/13 11:28:49;;;;;;;;;;;;;;;8.23;28.97;102281.11;1695516;84;25867;-58
2022/03/13 11:31:37;;;;;;;;;;;;;;;8.10;29.42;102288.95;1695714;84;25732;-58
2022/03/13 11:34:20;;;;;;;;;;;;;;;7.96;29.23;102287.01;1695571;83;27554;-57
2022/03/13 11:36:49;;;;;;;;;;;;;;;7.76;29.60;102282.22;1695736;84;25647;-57
2022/03/13 11:39:30;;;;;;;;;;;;;;;7.60;30.24;102289.33;1695331;83;25827;-58
2022/03/13 11:41:57;;;;;;;;;;;;;;;7.53;29.53;102286.09;1695851;84;26491;-58
2022/03/13 11:44:34;;;;;;;;;;;;;;;7.31;30.22;102292.57;1695686;84;25713;-57
2022/03/13 11:47:00;;;;;;;;;;;;;;;7.23;30.44;102296.56;1695830;83;27479;-57
2022/03/13 11:49:34;;;;;;;;;;;;;;;7.17;30.71;102297.76;1695652;84;25732;-57
2022/03/13 11:52:17;;;;;;;;;;;;;;;7.12;30.43;102296.65;1695941;83;25695;-57
2022/03/13 11:54:55;;;;;;;;;;;;;;;6.91;31.08;102297.69;1695704;84;26465;-57
2022/03/13 11:57:24;;;;;;;;;;;;;;;6.79;31.30;102300.50;1687063;84;25724;-57
2022/03/13 12:00:13;;;;;;;;;;;;;;;6.79;31.75;102297.83;1685302;85;27564;-57
2022/03/13 12:02:47;;;;;;;;;;;;;;;6.75;31.74;102306.47;1688823;84;26409;-58
2022/03/13 12:05:26;;;;;;;;;;;;;;;6.69;31.73;102300.05;1696914;83;25714;-58
2022/03/13 12:08:21;;;;;;;;;;;;;;;6.61;32.21;102309.80;1679617;85;25940;-58
2022/03/13 12:10:37;;;;;;;;;;;;;;;6.64;31.79;102308.78;1675296;84;25765;-58
2022/03/13 12:13:05;;;;;;;;;;;;;;;6.61;31.79;102317.82;1683504;84;27627;-58
2022/03/13 12:15:32;;;;;;;;;;;;;;;6.50;32.54;102313.44;1682753;85;26376;-58
2022/03/13 12:18:01;;;;;;;;;;;;;;;6.46;32.47;102320.73;1683785;85;25791;-58
2022/03/13 12:20:28;;;;;;;;;;;;;;;6.39;32.67;102318.80;1683103;85;26174;-58
2022/03/13 12:22:56;;;;;;;;;;;;;;;6.38;32.97;102321.08;1683418;84;25745;-58
2022/03/13 12:25:30;;;;;;;;;;;;;;;6.38;33.02;102321.56;1688256;83;27477;-59
2022/03/13 12:28:01;;;;;;;;;;;;;;;6.33;32.99;102320.44;1686994;84;25833;-58
2022/03/13 12:30:32;;;;;;;;;;;;;;;6.26;33.34;102318.98;1675853;85;25741;-59
2022/03/13 12:33:01;;;;;;;;;;;;;;;6.23;33.68;102331.99;1664821;85;25786;-59
2022/03/13 12:35:28;;;;;;;;;;;;;;;6.17;34.03;102328.27;1666974;85;25759;-58
2022/03/13 12:37:57;;;;;;;;;;;;;;;6.07;34.31;102331.84;1667477;85;27504;-58
2022/03/13 12:40:24;;;;;;;;;;;;;;;6.06;34.77;102330.55;1667681;85;25710;-58
2022/03/13 12:42:55;;;;;;;;;;;;;;;5.99;34.75;102327.72;1681235;85;25748;-58
2022/03/13 12:45:22;;;;;;;;;;;;;;;5.95;34.78;102332.34;1680986;85;26564;-58
2022/03/13 12:47:55;;;;;;;;;;;;;;;5.88;35.19;102335.73;1681087;85;25449;-58
2022/03/13 12:50:20;;;;;;;;;;;;;;;5.76;35.56;102345.16;1680660;85;27501;-58